Time;durP1;ratioP1;P1;durP2;ratioP2;P2;SDS_P1;SDS_P2;PMS_P1;PMS_P2;Temp;Humidity;BMP_temperature;BMP_pressure;BME280_temperature;BME280_humidity;BME280_pressure;Samples;Min_cycle;Max_cycle;Signal;HPM_P1;HPM_P2
2022/07/14 00:02:22;;;;;;;6.25;1.98;;;17.00;99.90;;;;;;5104616;28;20031;-34
2022/07/14 00:04:48;;;;;;;7.85;2.40;;;17.00;99.90;;;;;;5105225;28;20019;-35
2022/07/14 00:07:14;;;;;;;6.75;1.70;;;17.00;99.90;;;;;;5109312;28;20476;-35
2022/07/14 00:09:39;;;;;;;5.65;1.92;;;17.00;99.90;;;;;;5108908;28;20030;-35
2022/07/14 00:12:05;;;;;;;8.32;1.92;;;17.10;99.90;;;;;;5110444;28;20034;-35
2022/07/14 00:14:30;;;;;;;6.75;2.00;;;17.10;99.90;;;;;;5108938;28;20038;-35
2022/07/14 00:16:56;;;;;;;6.85;1.88;;;17.10;99.90;;;;;;5108990;28;20019;-34
2022/07/14 00:19:21;;;;;;;4.50;1.88;;;17.10;99.90;;;;;;5108719;28;20417;-35
2022/07/14 00:21:47;;;;;;;6.60;1.98;;;17.10;99.90;;;;;;5109659;28;20406;-35
2022/07/14 00:24:13;;;;;;;7.95;2.50;;;17.10;99.90;;;;;;5108483;28;20031;-34
2022/07/14 00:26:39;;;;;;;7.25;2.10;;;17.10;99.90;;;;;;5109418;28;20032;-34
2022/07/14 00:29:06;;;;;;;5.22;1.90;;;17.00;99.90;;;;;;5109949;28;20008;-36
2022/07/14 00:31:31;;;;;;;6.80;2.10;;;17.00;99.90;;;;;;5108401;28;20023;-35
2022/07/14 00:33:58;;;;;;;6.85;2.08;;;17.00;99.90;;;;;;5109098;28;20051;-34
2022/07/14 00:36:26;;;;;;;4.85;1.88;;;17.00;99.90;;;;;;5109221;28;20073;-35
2022/07/14 00:38:52;;;;;;;5.85;1.98;;;17.00;99.90;;;;;;5108720;28;20019;-35
2022/07/14 00:41:18;;;;;;;6.00;2.08;;;17.00;99.90;;;;;;5109424;28;20046;-35
2022/07/14 00:43:43;;;;;;;5.53;2.08;;;17.10;99.90;;;;;;5109120;28;20031;-36
2022/07/14 00:46:09;;;;;;;6.22;1.73;;;17.10;99.90;;;;;;5108277;28;20026;-34
2022/07/14 00:48:34;;;;;;;6.72;1.88;;;17.10;99.90;;;;;;5108240;28;20475;-34
2022/07/14 00:51:00;;;;;;;5.72;1.88;;;17.20;99.90;;;;;;5109075;28;20027;-33
2022/07/14 00:53:25;;;;;;;9.23;1.88;;;17.20;99.90;;;;;;5107889;28;20039;-34
2022/07/14 00:55:51;;;;;;;5.53;1.80;;;17.30;99.90;;;;;;5108407;28;20020;-34
2022/07/14 00:58:17;;;;;;;6.25;1.90;;;17.30;99.90;;;;;;5108817;28;20023;-35
2022/07/14 01:00:42;;;;;;;4.85;1.45;;;17.20;99.90;;;;;;5107351;28;20380;-34
2022/07/14 01:03:08;;;;;;;7.63;1.85;;;17.30;99.90;;;;;;5108718;28;20048;-34
2022/07/14 01:05:34;;;;;;;6.78;1.60;;;17.20;99.90;;;;;;5107443;28;20463;-35
2022/07/14 01:08:00;;;;;;;4.55;1.63;;;17.20;99.90;;;;;;5108539;28;20077;-35
2022/07/14 01:10:26;;;;;;;6.70;1.90;;;17.20;99.90;;;;;;5108068;28;20277;-35
2022/07/14 01:12:51;;;;;;;6.07;1.95;;;17.20;99.90;;;;;;5107564;28;20475;-34
2022/07/14 01:15:19;;;;;;;7.63;2.08;;;17.10;99.90;;;;;;5108071;28;20147;-34
2022/07/14 01:17:47;;;;;;;5.88;2.10;;;17.10;99.90;;;;;;5107408;28;20502;-36
2022/07/14 01:20:13;;;;;;;7.53;1.80;;;17.10;99.90;;;;;;5107250;28;20027;-34
2022/07/14 01:22:38;;;;;;;9.45;1.70;;;17.00;99.90;;;;;;5097539;28;20130;-34
2022/07/14 01:25:06;;;;;;;7.00;1.70;;;17.00;99.90;;;;;;5108859;28;20443;-34
2022/07/14 01:27:33;;;;;;;6.90;2.38;;;17.00;99.90;;;;;;5107031;28;20434;-35
2022/07/14 01:30:02;;;;;;;5.03;1.60;;;16.90;99.90;;;;;;5108673;28;20020;-35
2022/07/14 01:32:28;;;;;;;5.70;1.52;;;16.90;99.90;;;;;;5106864;28;20487;-35
2022/07/14 01:34:54;;;;;;;5.70;1.75;;;16.80;99.90;;;;;;5107747;28;20030;-35
2022/07/14 01:37:20;;;;;;;5.95;1.98;;;16.80;99.90;;;;;;5108115;28;20035;-35
2022/07/14 01:39:46;;;;;;;7.00;1.80;;;16.80;99.90;;;;;;5107958;28;20020;-35
2022/07/14 01:42:12;;;;;;;3.70;1.55;;;16.80;99.90;;;;;;5107662;28;20043;-35
2022/07/14 01:44:38;;;;;;;8.35;2.22;;;16.70;99.90;;;;;;5107503;28;20463;-35
2022/07/14 01:47:03;;;;;;;5.68;1.85;;;16.60;99.90;;;;;;5107693;28;20023;-35
2022/07/14 01:49:29;;;;;;;5.93;2.05;;;16.50;99.90;;;;;;5106770;28;20015;-35
2022/07/14 01:51:55;;;;;;;6.22;2.33;;;16.50;99.90;;;;;;5107956;28;20106;-36
2022/07/14 01:54:20;;;;;;;4.97;1.92;;;16.50;99.90;;;;;;5108300;28;20028;-35
2022/07/14 01:56:46;;;;;;;8.38;1.90;;;16.40;99.90;;;;;;5106686;28;20131;-34
2022/07/14 01:59:11;;;;;;;4.35;1.50;;;16.40;99.90;;;;;;5108141;28;20111;-34
2022/07/14 02:01:40;;;;;;;5.72;2.00;;;16.40;99.90;;;;;;5107342;28;20562;-34
2022/07/14 02:04:09;;;;;;;8.07;1.73;;;16.40;99.90;;;;;;5107293;28;20480;-35
2022/07/14 02:06:34;;;;;;;4.72;1.55;;;16.30;99.90;;;;;;5107220;28;20219;-35
2022/07/14 02:09:00;;;;;;;4.15;1.60;;;16.30;99.90;;;;;;5106419;28;20020;-35
2022/07/14 02:14:10;;;;;;;5.70;1.98;;;16.30;99.90;;;;;;5107893;28;20047;-35
2022/07/14 02:16:36;;;;;;;4.65;1.33;;;16.30;99.90;;;;;;5106210;28;20020;-34
2022/07/14 02:19:01;;;;;;;4.47;1.70;;;16.30;99.90;;;;;;5107815;28;20027;-37
2022/07/14 02:21:27;;;;;;;6.45;1.98;;;16.20;99.90;;;;;;5105443;28;20471;-34
2022/07/14 02:23:54;;;;;;;7.07;1.75;;;16.20;99.90;;;;;;5094932;28;20513;-34
2022/07/14 02:26:19;;;;;;;6.38;2.03;;;16.10;99.90;;;;;;5107299;28;20084;-34
2022/07/14 02:28:45;;;;;;;4.68;1.45;;;16.10;99.90;;;;;;5105568;28;20036;-35
2022/07/14 02:31:11;;;;;;;6.35;1.75;;;16.10;99.90;;;;;;5106431;28;20016;-41
2022/07/14 02:33:37;;;;;;;7.57;1.95;;;16.00;99.90;;;;;;5106413;28;20043;-35
2022/07/14 02:36:04;;;;;;;5.85;1.70;;;16.00;99.90;;;;;;5107775;28;20556;-34
2022/07/14 02:38:30;;;;;;;4.32;1.67;;;16.00;99.90;;;;;;5105662;28;20513;-34
2022/07/14 02:40:55;;;;;;;6.40;2.83;;;15.90;99.90;;;;;;5106983;28;20051;-34
2022/07/14 02:43:21;;;;;;;4.65;1.88;;;15.90;99.90;;;;;;5106466;28;20409;-33
2022/07/14 02:45:46;;;;;;;4.43;1.65;;;15.90;99.90;;;;;;5105566;28;20102;-34
2022/07/14 02:48:12;;;;;;;6.68;2.30;;;15.90;99.90;;;;;;5106419;28;20026;-35
2022/07/14 02:50:37;;;;;;;5.05;1.90;;;15.80;99.90;;;;;;5106624;28;20020;-35
2022/07/14 02:53:06;;;;;;;4.93;1.80;;;15.80;99.90;;;;;;5105920;28;20028;-34
2022/07/14 02:55:34;;;;;;;6.28;1.80;;;15.90;99.90;;;;;;5106090;28;20494;-35
2022/07/14 02:58:00;;;;;;;4.97;1.67;;;15.90;99.90;;;;;;5105427;28;20030;-34
2022/07/14 03:00:26;;;;;;;8.52;1.95;;;15.90;99.90;;;;;;5105882;28;20027;-35
2022/07/14 03:02:51;;;;;;;4.50;1.83;;;15.90;99.90;;;;;;5106316;28;20031;-36
2022/07/14 03:05:17;;;;;;;6.35;1.65;;;15.90;99.90;;;;;;5105588;28;20031;-35
2022/07/14 03:07:43;;;;;;;6.13;2.30;;;15.90;99.90;;;;;;5106227;28;20765;-35
2022/07/14 03:10:09;;;;;;;5.03;1.85;;;15.90;99.90;;;;;;5106253;28;20032;-35
2022/07/14 03:12:34;;;;;;;4.85;1.83;;;15.80;99.90;;;;;;5105272;28;20032;-34
2022/07/14 03:15:00;;;;;;;9.93;2.00;;;15.90;99.90;;;;;;5106108;28;20033;-34
2022/07/14 03:17:26;;;;;;;4.70;1.73;;;15.80;99.90;;;;;;5105821;28;20024;-34
2022/07/14 03:19:51;;;;;;;5.93;1.73;;;15.90;99.90;;;;;;5105390;28;20023;-35
2022/07/14 03:22:17;;;;;;;7.05;1.85;;;15.90;99.90;;;;;;5105657;28;20499;-35
2022/07/14 03:24:43;;;;;;;4.82;1.95;;;15.80;99.90;;;;;;5106296;28;20023;-35
2022/07/14 03:27:09;;;;;;;5.00;1.80;;;15.80;99.90;;;;;;5105645;28;20188;-34
2022/07/14 03:29:34;;;;;;;5.65;1.60;;;15.80;99.90;;;;;;5105165;28;20028;-35
2022/07/14 03:32:00;;;;;;;6.88;1.70;;;15.80;99.90;;;;;;5107069;28;20030;-33
2022/07/14 03:34:25;;;;;;;5.78;1.60;;;15.80;99.90;;;;;;5104775;28;20093;-35
2022/07/14 03:36:51;;;;;;;4.18;1.30;;;15.80;99.90;;;;;;5106633;28;20022;-33
2022/07/14 03:39:16;;;;;;;3.17;1.40;;;15.70;99.90;;;;;;5106490;28;20035;-34
2022/07/14 03:41:42;;;;;;;5.70;1.63;;;15.70;99.90;;;;;;5108756;28;20018;-33
2022/07/14 03:44:07;;;;;;;3.97;1.40;;;15.70;99.90;;;;;;5110733;28;20421;-34
2022/07/14 03:46:33;;;;;;;3.05;1.25;;;15.60;99.90;;;;;;5109605;28;20046;-34
2022/07/14 03:49:00;;;;;;;5.40;1.67;;;15.60;99.90;;;;;;5109386;28;20035;-35
2022/07/14 03:51:26;;;;;;;5.50;1.52;;;15.50;99.90;;;;;;5109287;28;20028;-35
2022/07/14 03:53:51;;;;;;;4.18;1.52;;;15.50;99.90;;;;;;5110573;28;20039;-34
2022/07/14 03:56:18;;;;;;;7.50;1.70;;;15.50;99.90;;;;;;5109002;28;20425;-35
2022/07/14 03:58:43;;;;;;;8.73;2.00;;;15.40;99.90;;;;;;5109849;28;20028;-35
2022/07/14 04:01:09;;;;;;;7.38;1.80;;;15.40;99.90;;;;;;5110265;28;20475;-35
2022/07/14 04:03:34;;;;;;;4.13;1.65;;;15.40;99.90;;;;;;5108810;28;20066;-35
2022/07/14 04:06:00;;;;;;;4.32;1.40;;;15.40;99.90;;;;;;5109923;28;20399;-35
2022/07/14 04:08:26;;;;;;;5.35;1.95;;;15.30;99.90;;;;;;5108584;28;20179;-35
2022/07/14 04:10:51;;;;;;;4.28;1.40;;;15.30;99.90;;;;;;5109550;28;20015;-35
2022/07/14 04:13:17;;;;;;;6.25;1.70;;;15.30;99.90;;;;;;5109364;28;20039;-35
2022/07/14 04:15:42;;;;;;;5.40;1.38;;;15.30;99.90;;;;;;5108500;28;20027;-33
2022/07/14 04:18:08;;;;;;;7.55;1.75;;;15.30;99.90;;;;;;5109696;28;20023;-34
2022/07/14 04:20:35;;;;;;;5.35;1.52;;;15.30;99.90;;;;;;5109840;28;20020;-34
2022/07/14 04:23:00;;;;;;;4.82;1.60;;;15.30;99.90;;;;;;5108179;28;20526;-33
2022/07/14 04:25:26;;;;;;;5.00;1.80;;;15.30;99.90;;;;;;5108933;28;20020;-35
2022/07/14 04:27:52;;;;;;;6.53;1.75;;;15.30;99.90;;;;;;5109712;28;20035;-35
2022/07/14 04:30:17;;;;;;;4.57;1.23;;;15.40;99.90;;;;;;5108815;28;20016;-34
2022/07/14 04:32:43;;;;;;;6.72;1.52;;;15.30;99.90;;;;;;5108925;28;20180;-36
2022/07/14 04:35:09;;;;;;;3.60;1.58;;;15.40;99.90;;;;;;5109306;28;20451;-35
2022/07/14 04:37:34;;;;;;;6.43;1.63;;;15.30;99.90;;;;;;5108364;28;20027;-34
2022/07/14 04:40:01;;;;;;;7.55;2.15;;;15.40;99.90;;;;;;5109071;28;20024;-34
2022/07/14 04:42:29;;;;;;;6.60;1.55;;;15.30;99.90;;;;;;5108685;28;20517;-35
2022/07/14 04:44:54;;;;;;;5.85;1.85;;;15.30;99.90;;;;;;5108699;28;20027;-35
2022/07/14 04:47:20;;;;;;;5.28;1.70;;;15.30;99.90;;;;;;5108450;28;20023;-34
2022/07/14 04:52:29;;;;;;;5.18;1.60;;;15.40;99.90;;;;;;5106405;28;20090;-34
2022/07/14 04:54:55;;;;;;;6.43;1.70;;;15.40;99.90;;;;;;5109377;28;20055;-34
2022/07/14 04:57:20;;;;;;;6.20;1.90;;;15.40;99.90;;;;;;5108456;28;20023;-34
2022/07/14 04:59:46;;;;;;;4.78;1.67;;;15.40;99.90;;;;;;5107552;28;20471;-35
2022/07/14 05:02:12;;;;;;;4.88;1.40;;;15.40;99.90;;;;;;5108647;28;20019;-35
2022/07/14 05:04:38;;;;;;;4.43;1.30;;;15.50;99.90;;;;;;5107305;28;20394;-34
2022/07/14 05:07:04;;;;;;;7.38;1.63;;;15.50;99.90;;;;;;5109005;28;20016;-34
2022/07/14 05:09:32;;;;;;;5.15;1.45;;;15.60;99.90;;;;;;5108144;28;20486;-35
2022/07/14 05:11:59;;;;;;;4.47;1.58;;;15.60;99.90;;;;;;5107851;28;20027;-34
2022/07/14 05:14:24;;;;;;;4.70;1.40;;;15.60;99.90;;;;;;5107439;28;20577;-35
2022/07/14 05:16:50;;;;;;;3.13;1.10;;;15.60;99.90;;;;;;5108780;28;20019;-34
2022/07/14 05:19:16;;;;;;;4.00;1.13;;;15.70;99.90;;;;;;5106977;28;20047;-35
2022/07/14 05:21:42;;;;;;;3.00;1.20;;;15.80;99.90;;;;;;5107694;28;20070;-34
2022/07/14 05:24:08;;;;;;;4.60;1.50;;;15.80;99.90;;;;;;5108468;28;20027;-35
2022/07/14 05:26:34;;;;;;;4.90;1.30;;;15.80;99.90;;;;;;5107627;28;20440;-36
2022/07/14 05:29:00;;;;;;;3.83;1.40;;;15.90;99.90;;;;;;5108313;28;20028;-35
2022/07/14 05:31:25;;;;;;;4.35;1.20;;;15.90;99.90;;;;;;5108053;28;20036;-37
2022/07/14 05:33:51;;;;;;;5.40;1.80;;;16.00;99.90;;;;;;5107332;28;20379;-36
2022/07/14 05:36:17;;;;;;;5.05;1.48;;;16.00;99.90;;;;;;5108279;28;20028;-37
2022/07/14 05:38:43;;;;;;;6.05;1.55;;;16.00;99.90;;;;;;5107998;28;20039;-35
2022/07/14 05:41:08;;;;;;;7.28;1.50;;;16.10;99.90;;;;;;5105510;28;20081;-35
2022/07/14 05:43:34;;;;;;;6.25;1.52;;;16.00;99.90;;;;;;5106726;28;20441;-35
2022/07/14 05:46:09;;;;;;;5.45;1.45;;;16.10;99.90;;;;;;5103478;28;20020;-35
2022/07/14 05:48:37;;;;;;;4.72;1.60;;;16.20;99.90;;;;;;5105681;28;20024;-34
2022/07/14 05:51:08;;;;;;;7.50;1.63;;;16.10;99.90;;;;;;5106000;28;20027;-35
2022/07/14 05:53:35;;;;;;;6.90;1.63;;;16.10;99.90;;;;;;5106828;28;20048;-35
2022/07/14 05:56:02;;;;;;;3.63;1.50;;;16.20;99.90;;;;;;5106002;28;20063;-36
2022/07/14 05:58:28;;;;;;;4.53;1.40;;;16.20;99.90;;;;;;5106242;28;20417;-34
2022/07/14 06:00:53;;;;;;;6.38;1.67;;;16.20;99.90;;;;;;5105942;28;20020;-35
2022/07/14 06:03:19;;;;;;;3.30;1.50;;;16.30;99.90;;;;;;5106208;28;20139;-34
2022/07/14 06:05:45;;;;;;;7.72;1.50;;;16.30;99.90;;;;;;5106546;28;20109;-34
2022/07/14 06:08:11;;;;;;;4.53;1.42;;;16.30;99.90;;;;;;5106110;28;20032;-35
2022/07/14 06:10:37;;;;;;;3.55;1.17;;;16.30;99.90;;;;;;5106006;28;20027;-36
2022/07/14 06:13:03;;;;;;;5.05;1.50;;;16.40;99.90;;;;;;5106260;28;20043;-35
2022/07/14 06:15:31;;;;;;;4.88;1.73;;;16.40;99.90;;;;;;5105530;28;20635;-36
2022/07/14 06:17:57;;;;;;;7.07;1.23;;;16.40;99.90;;;;;;5106499;28;20120;-33
2022/07/14 06:20:22;;;;;;;3.50;1.02;;;16.50;99.90;;;;;;5106142;28;20596;-34
2022/07/14 06:22:52;;;;;;;3.03;0.90;;;16.50;99.90;;;;;;5105935;28;20522;-35
2022/07/14 06:25:17;;;;;;;5.85;1.17;;;16.50;99.90;;;;;;5105675;28;20027;-34
2022/07/14 06:27:43;;;;;;;8.38;1.60;;;16.60;99.90;;;;;;5105585;28;20452;-35
2022/07/14 06:30:09;;;;;;;5.88;1.85;;;16.60;99.90;;;;;;5106549;28;20020;-34
2022/07/14 06:32:39;;;;;;;5.72;1.90;;;16.70;99.90;;;;;;5106109;28;20028;-35
2022/07/14 06:35:05;;;;;;;7.60;2.22;;;16.70;99.90;;;;;;5104159;27;20083;-33
2022/07/14 06:37:31;;;;;;;5.43;1.80;;;16.80;99.90;;;;;;5105286;28;20421;-35
2022/07/14 06:39:57;;;;;;;6.45;1.85;;;16.80;99.90;;;;;;5106866;28;20110;-34
2022/07/14 06:42:22;;;;;;;5.45;1.40;;;16.80;99.90;;;;;;5106920;28;20011;-35
2022/07/14 06:44:48;;;;;;;5.32;1.52;;;16.90;99.90;;;;;;5105309;28;20035;-35
2022/07/14 06:47:14;;;;;;;4.97;1.55;;;16.90;99.90;;;;;;5106023;28;20028;-36
2022/07/14 06:49:39;;;;;;;4.10;1.55;;;16.90;99.90;;;;;;5106584;28;20501;-35
2022/07/14 06:52:05;;;;;;;7.13;1.30;;;17.00;99.90;;;;;;5105895;28;20324;-35
2022/07/14 06:54:31;;;;;;;7.10;1.48;;;17.00;99.90;;;;;;5105525;28;20043;-34
2022/07/14 06:56:56;;;;;;;5.43;1.63;;;17.10;99.90;;;;;;5106306;28;20065;-34
2022/07/14 06:59:22;;;;;;;4.07;1.25;;;17.10;99.90;;;;;;5105886;28;20093;-34
2022/07/14 07:01:47;;;;;;;3.60;1.05;;;17.20;99.90;;;;;;5106223;28;20022;-35
2022/07/14 07:04:13;;;;;;;1.67;0.80;;;17.20;99.90;;;;;;5105333;28;20498;-36
2022/07/14 07:06:44;;;;;;;6.32;1.30;;;17.30;99.90;;;;;;5105835;28;20108;-36
2022/07/14 07:09:15;;;;;;;5.82;1.20;;;17.30;99.90;;;;;;5106880;28;20032;-36
2022/07/14 07:11:43;;;;;;;6.13;1.90;;;17.40;99.90;;;;;;5105275;28;20031;-36
2022/07/14 07:14:09;;;;;;;4.47;1.30;;;17.40;99.90;;;;;;5105649;28;20410;-36
2022/07/14 07:16:34;;;;;;;4.57;1.48;;;17.40;99.90;;;;;;5105368;28;20019;-34
2022/07/14 07:19:00;;;;;;;4.32;1.38;;;17.50;99.90;;;;;;5105531;28;20024;-35
2022/07/14 07:21:26;;;;;;;5.07;1.42;;;17.50;99.90;;;;;;5105516;28;20027;-36
2022/07/14 07:23:54;;;;;;;6.47;1.40;;;17.50;99.90;;;;;;5105638;28;20047;-35
2022/07/14 07:26:22;;;;;;;3.08;1.00;;;17.60;99.90;;;;;;5105195;28;20058;-36
2022/07/14 07:28:48;;;;;;;4.70;1.08;;;17.60;99.90;;;;;;5105515;28;20098;-35
2022/07/14 07:31:14;;;;;;;4.22;1.20;;;17.60;99.90;;;;;;5106371;28;20103;-37
2022/07/14 07:33:39;;;;;;;2.58;1.00;;;17.70;99.90;;;;;;5105464;28;20286;-36
2022/07/14 07:36:05;;;;;;;2.70;1.00;;;17.70;99.90;;;;;;5105251;28;20521;-36
2022/07/14 07:38:31;;;;;;;2.95;1.23;;;17.70;99.90;;;;;;5104970;28;20082;-36
2022/07/14 07:40:56;;;;;;;2.78;1.20;;;17.80;99.90;;;;;;5105992;28;20019;-34
2022/07/14 07:43:22;;;;;;;2.33;1.15;;;17.80;99.90;;;;;;5105457;28;20043;-35
2022/07/14 07:45:49;;;;;;;1.77;0.80;;;17.90;99.90;;;;;;5105203;28;20077;-35
2022/07/14 07:48:15;;;;;;;2.85;1.23;;;17.90;99.90;;;;;;5104669;28;20421;-35
2022/07/14 07:50:42;;;;;;;4.93;1.20;;;18.00;99.90;;;;;;5105400;28;20495;-35
2022/07/14 07:53:08;;;;;;;2.47;1.08;;;18.00;99.90;;;;;;5106137;28;20143;-34
2022/07/14 07:55:34;;;;;;;5.22;1.45;;;18.00;99.90;;;;;;5105204;28;20498;-35
2022/07/14 07:58:00;;;;;;;3.63;1.02;;;18.10;99.90;;;;;;5105861;28;20034;-34
2022/07/14 08:00:25;;;;;;;2.33;1.08;;;18.10;99.90;;;;;;5104924;28;20023;-35
2022/07/14 08:02:53;;;;;;;3.42;1.00;;;18.20;99.90;;;;;;5106237;28;20020;-35
2022/07/14 08:05:21;;;;;;;2.15;0.80;;;18.20;99.90;;;;;;5105022;28;20530;-35
2022/07/14 08:07:47;;;;;;;3.92;1.00;;;18.20;99.90;;;;;;5104823;28;20023;-35
2022/07/14 08:10:14;;;;;;;5.13;1.10;;;18.30;99.80;;;;;;5105579;28;20034;-35
2022/07/14 08:12:40;;;;;;;2.90;1.00;;;18.30;99.80;;;;;;5105667;28;20047;-35
2022/07/14 08:15:06;;;;;;;3.72;1.27;;;18.30;99.50;;;;;;5104036;28;20038;-34
2022/07/14 08:17:32;;;;;;;4.38;0.95;;;18.40;99.40;;;;;;5105445;28;20608;-34
2022/07/14 08:19:58;;;;;;;4.82;1.60;;;18.50;99.30;;;;;;5105094;28;20439;-35
2022/07/14 08:22:25;;;;;;;2.72;1.05;;;18.50;99.10;;;;;;5099970;28;20043;-44
2022/07/14 08:24:51;;;;;;;2.95;1.00;;;18.50;99.00;;;;;;5104866;28;20080;-34
2022/07/14 08:27:16;;;;;;;4.18;1.33;;;18.60;99.00;;;;;;5107290;28;20114;-34
2022/07/14 08:29:42;;;;;;;2.10;0.82;;;18.60;99.00;;;;;;5106197;28;20148;-35
2022/07/14 08:32:08;;;;;;;4.65;1.02;;;18.60;98.90;;;;;;5108854;28;20475;-36
2022/07/14 08:34:33;;;;;;;4.93;1.00;;;18.60;98.70;;;;;;5108292;28;20032;-35
2022/07/14 08:36:59;;;;;;;2.03;0.80;;;18.70;98.60;;;;;;5107316;28;20023;-36
2022/07/14 08:39:25;;;;;;;3.65;1.00;;;18.80;98.50;;;;;;5108519;28;20341;-37
2022/07/14 08:41:54;;;;;;;1.50;0.60;;;18.80;98.30;;;;;;5109436;28;20016;-36
2022/07/14 08:44:21;;;;;;;1.45;0.70;;;18.90;98.20;;;;;;5108378;28;20062;-34
2022/07/14 08:46:47;;;;;;;2.38;0.75;;;18.90;97.50;;;;;;5108495;28;20043;-36
2022/07/14 08:49:14;;;;;;;2.50;0.98;;;19.00;97.60;;;;;;5108958;28;20027;-35
2022/07/14 08:51:42;;;;;;;2.67;0.70;;;19.00;97.50;;;;;;5107557;28;20024;-35
2022/07/14 08:54:09;;;;;;;3.15;0.90;;;19.00;97.30;;;;;;5108533;28;20035;-34
2022/07/14 08:56:39;;;;;;;2.35;1.10;;;19.10;97.30;;;;;;5108006;28;20051;-35
2022/07/14 08:59:06;;;;;;;2.00;0.70;;;19.10;97.20;;;;;;5108447;28;20023;-35
2022/07/14 09:01:32;;;;;;;2.25;0.88;;;19.20;97.20;;;;;;5107878;28;20028;-35
2022/07/14 09:03:59;;;;;;;1.88;0.55;;;19.20;97.10;;;;;;5107910;28;20026;-35
2022/07/14 09:06:45;;;;;;;0.98;0.63;;;19.30;97.00;;;;;;5108264;28;20028;-34
2022/07/14 09:09:16;;;;;;;2.95;0.85;;;19.40;97.00;;;;;;5108696;28;20089;-35
2022/07/14 09:12:01;;;;;;;1.92;0.77;;;19.50;96.90;;;;;;5107382;28;20024;-35
2022/07/14 09:14:28;;;;;;;2.25;0.60;;;19.50;96.70;;;;;;5107616;28;20039;-35
2022/07/14 09:17:14;;;;;;;1.60;0.80;;;19.60;96.60;;;;;;5108031;28;20055;-34
2022/07/14 09:20:10;;;;;;;1.73;0.77;;;19.60;96.60;;;;;;5107596;28;20024;-35
2022/07/14 09:22:38;;;;;;;1.45;0.77;;;19.70;96.60;;;;;;5108009;28;20433;-37
2022/07/14 09:25:08;;;;;;;3.58;0.90;;;19.80;96.40;;;;;;5087627;28;20423;-36
2022/07/14 09:27:34;;;;;;;2.15;0.90;;;19.90;96.30;;;;;;5102101;28;20027;-35
2022/07/14 09:29:59;;;;;;;3.53;1.05;;;20.00;96.30;;;;;;5108563;28;20038;-35
2022/07/14 09:32:43;;;;;;;2.45;0.90;;;20.00;96.20;;;;;;5106778;28;20023;-35
2022/07/14 09:35:13;;;;;;;2.90;0.90;;;20.00;96.10;;;;;;5107786;28;20059;-34
2022/07/14 09:37:39;;;;;;;2.35;0.80;;;20.00;96.00;;;;;;5106844;28;20134;-36
2022/07/14 09:40:09;;;;;;;2.25;0.70;;;20.00;95.90;;;;;;5106901;28;20028;-36
2022/07/14 09:42:53;;;;;;;2.60;0.80;;;20.10;95.90;;;;;;5107062;28;20019;-34
2022/07/14 09:45:22;;;;;;;3.88;1.20;;;20.20;95.70;;;;;;5108016;28;20434;-34
2022/07/14 09:47:51;;;;;;;1.35;0.60;;;20.30;95.60;;;;;;5106444;28;20020;-37
2022/07/14 09:50:40;;;;;;;2.70;0.88;;;20.40;95.40;;;;;;5108003;28;20303;-36
2022/07/14 09:53:45;;;;;;;1.67;0.90;;;20.50;94.50;;;;;;5106899;28;20036;-35
2022/07/14 09:56:10;;;;;;;5.05;1.30;;;20.70;94.20;;;;;;5004539;28;20050;-35
2022/07/14 09:58:45;;;;;;;2.80;0.85;;;20.90;91.90;;;;;;5003587;28;20125;-35
2022/07/14 10:01:14;;;;;;;2.55;0.98;;;21.10;92.30;;;;;;5047577;28;20044;-34
2022/07/14 10:03:41;;;;;;;1.85;0.77;;;21.20;92.10;;;;;;5100329;28;20027;-35
2022/07/14 10:06:08;;;;;;;3.95;0.90;;;21.30;91.30;;;;;;5107221;28;20035;-36
2022/07/14 10:08:35;;;;;;;2.55;0.98;;;21.30;91.60;;;;;;5105844;28;20031;-34
2022/07/14 10:11:05;;;;;;;1.50;0.65;;;21.30;91.60;;;;;;5107760;28;20135;-34
2022/07/14 10:13:32;;;;;;;3.65;0.90;;;21.30;91.10;;;;;;5106033;28;20031;-36
2022/07/14 10:15:58;;;;;;;2.22;0.75;;;21.30;90.30;;;;;;5106840;28;20092;-35
2022/07/14 10:18:25;;;;;;;2.80;0.88;;;21.30;89.70;;;;;;5106525;28;20077;-36
2022/07/14 10:20:53;;;;;;;1.58;0.68;;;21.30;88.30;;;;;;5107192;28;20802;-36
2022/07/14 10:23:20;;;;;;;1.30;0.63;;;21.40;86.40;;;;;;5106042;28;20039;-37
2022/07/14 10:25:51;;;;;;;2.65;0.77;;;21.50;86.50;;;;;;5106097;28;20519;-34
2022/07/14 10:28:17;;;;;;;3.00;0.95;;;21.60;85.60;;;;;;5105662;28;20027;-36
2022/07/14 10:31:04;;;;;;;2.10;0.95;;;21.60;86.00;;;;;;5107194;28;20020;-35
2022/07/14 10:33:42;;;;;;;3.03;0.70;;;21.60;84.20;;;;;;5106101;28;20043;-36
2022/07/14 10:36:32;;;;;;;1.95;0.75;;;21.70;85.00;;;;;;5094262;28;20109;-35
2022/07/14 10:39:07;;;;;;;1.95;0.82;;;21.90;84.70;;;;;;5106350;28;20153;-35
2022/07/14 10:41:41;;;;;;;1.05;0.65;;;22.10;84.50;;;;;;5106311;28;20057;-35
2022/07/14 10:44:11;;;;;;;4.00;1.15;;;22.20;84.00;;;;;;5106061;28;20058;-35
2022/07/14 10:46:37;;;;;;;3.63;1.00;;;22.30;80.60;;;;;;5105962;28;20028;-35
2022/07/14 10:49:06;;;;;;;2.88;0.90;;;22.40;81.80;;;;;;5106666;28;20026;-35
2022/07/14 10:51:32;;;;;;;4.80;1.00;;;22.60;82.60;;;;;;5105530;28;20034;-35
2022/07/14 10:53:58;;;;;;;3.08;1.10;;;22.70;81.10;;;;;;5106478;28;20472;-35
2022/07/14 10:56:25;;;;;;;5.18;1.60;;;22.90;80.50;;;;;;5105282;28;20559;-36
2022/07/14 10:59:26;;;;;;;3.25;1.20;;;23.00;79.00;;;;;;5106781;28;20033;-34
2022/07/14 11:02:10;;;;;;;4.70;1.40;;;23.10;79.50;;;;;;5106326;28;20054;-38
2022/07/14 11:04:58;;;;;;;3.42;1.30;;;23.20;78.90;;;;;;5104312;28;20049;-35
2022/07/14 11:07:46;;;;;;;1.52;0.82;;;23.30;78.30;;;;;;5096574;28;20040;-35
2022/07/14 11:10:21;;;;;;;3.45;1.10;;;23.40;78.40;;;;;;5107057;28;20028;-35
2022/07/14 11:13:04;;;;;;;2.58;1.25;;;23.40;77.90;;;;;;5106253;28;20073;-35
2022/07/14 11:15:55;;;;;;;2.97;1.17;;;23.50;78.30;;;;;;5105190;28;20149;-35
2022/07/14 11:18:21;;;;;;;2.63;1.00;;;23.60;78.50;;;;;;5093147;28;20032;-35
2022/07/14 11:21:01;;;;;;;3.50;1.20;;;23.70;76.20;;;;;;5105759;28;20533;-35
2022/07/14 11:23:28;;;;;;;3.35;1.40;;;23.70;76.40;;;;;;5105470;28;20062;-34
2022/07/14 11:25:55;;;;;;;5.10;1.25;;;23.80;75.60;;;;;;5105755;28;20026;-35
2022/07/14 11:28:42;;;;;;;2.42;0.98;;;23.80;76.00;;;;;;5105042;28;20016;-35
2022/07/14 11:31:15;;;;;;;3.83;0.85;;;23.90;76.10;;;;;;5105807;28;20375;-35
2022/07/14 11:36:32;;;;;;;3.65;0.95;;;24.00;75.80;;;;;;5105269;28;20035;-36
2022/07/14 11:39:32;;;;;;;1.33;0.85;;;24.10;73.50;;;;;;5105145;28;20036;-35
2022/07/14 11:42:06;;;;;;;1.75;0.73;;;24.00;73.90;;;;;;5086514;28;20074;-36
2022/07/14 11:44:40;;;;;;;2.08;0.98;;;23.90;73.40;;;;;;5105164;28;20418;-36
2022/07/14 11:47:15;;;;;;;3.88;0.98;;;23.90;72.90;;;;;;5105162;28;20030;-36
2022/07/14 11:49:49;;;;;;;2.08;0.88;;;23.90;72.50;;;;;;5106418;28;20031;-34
2022/07/14 11:52:15;;;;;;;1.60;0.68;;;23.80;70.60;;;;;;5105712;28;20027;-35
2022/07/14 11:54:42;;;;;;;1.85;0.93;;;23.80;71.10;;;;;;5104989;28;20075;-36
2022/07/14 11:57:09;;;;;;;2.42;0.88;;;23.70;70.90;;;;;;5105402;28;20138;-35
2022/07/14 11:59:39;;;;;;;2.30;0.80;;;23.70;71.50;;;;;;5103884;28;20027;-35
2022/07/14 12:02:09;;;;;;;1.67;0.70;;;23.70;72.10;;;;;;5108237;28;20054;-35
2022/07/14 12:04:57;;;;;;;2.88;1.00;;;23.80;72.20;;;;;;5109692;28;20054;-35
2022/07/14 12:07:25;;;;;;;4.97;1.20;;;23.80;72.30;;;;;;5108476;28;20020;-36
2022/07/14 12:09:52;;;;;;;3.17;0.90;;;23.80;72.40;;;;;;5109425;28;20067;-35
2022/07/14 12:12:19;;;;;;;2.10;0.98;;;23.80;72.90;;;;;;5109503;28;20032;-35
2022/07/14 12:14:53;;;;;;;2.67;1.10;;;23.80;72.50;;;;;;5108558;28;20039;-35
2022/07/14 12:17:20;;;;;;;2.05;0.80;;;23.80;72.50;;;;;;5109225;28;20028;-35
2022/07/14 12:19:47;;;;;;;1.92;1.00;;;23.80;72.50;;;;;;5108505;28;20049;-35
2022/07/14 12:22:13;;;;;;;3.00;0.75;;;23.80;72.90;;;;;;5109271;28;20048;-35
2022/07/14 12:24:39;;;;;;;2.30;0.90;;;23.80;73.10;;;;;;5108811;28;20023;-36
2022/07/14 12:27:06;;;;;;;4.10;0.98;;;23.90;73.40;;;;;;5109980;28;20085;-35
2022/07/14 12:29:33;;;;;;;2.45;0.80;;;23.90;72.50;;;;;;5104412;28;20572;-34
2022/07/14 12:32:00;;;;;;;2.03;1.00;;;23.80;71.80;;;;;;5108443;28;20031;-34
2022/07/14 12:34:27;;;;;;;2.20;1.00;;;23.70;72.40;;;;;;5108084;28;20481;-36
2022/07/14 12:36:57;;;;;;;2.88;1.00;;;23.60;73.00;;;;;;5105980;28;20032;-34
2022/07/14 12:39:24;;;;;;;3.70;1.00;;;23.50;73.20;;;;;;5108143;28;20028;-37
2022/07/14 12:41:50;;;;;;;2.40;0.90;;;23.40;73.50;;;;;;5109083;28;20082;-36
2022/07/14 12:44:16;;;;;;;1.45;0.68;;;23.40;74.20;;;;;;5108618;28;20072;-35
2022/07/14 12:46:42;;;;;;;3.70;0.80;;;23.40;74.80;;;;;;5109105;28;20027;-35
2022/07/14 12:49:09;;;;;;;3.40;1.08;;;23.40;74.80;;;;;;5108538;28;20148;-35
2022/07/14 12:51:39;;;;;;;2.63;0.85;;;23.30;74.20;;;;;;5108248;28;20043;-33
2022/07/14 12:54:18;;;;;;;1.80;0.80;;;23.40;73.90;;;;;;5108796;28;20474;-35
2022/07/14 12:56:51;;;;;;;1.83;0.88;;;23.30;74.20;;;;;;5108270;28;20123;-35
2022/07/14 12:59:26;;;;;;;1.88;0.60;;;23.30;73.80;;;;;;5108580;28;20031;-35
2022/07/14 13:01:57;;;;;;;2.70;0.80;;;23.30;73.80;;;;;;5109008;28;20032;-35